Time;durP1;ratioP1;P1;durP2;ratioP2;P2;SDS_P1;SDS_P2;PMS_P1;PMS_P2;Temp;Humidity;BMP_temperature;BMP_pressure;BME280_temperature;BME280_humidity;BME280_pressure;Samples;Min_cycle;Max_cycle;Signal;HPM_P1;HPM_P2
2021/09/13 00:03:22;;;;;;;0.10;0.10;;;;;;;14.20;94.99;101783.00;10551862;28;20469;-65
2021/09/13 00:08:22;;;;;;;0.10;0.10;;;;;;;14.11;95.53;101781.25;10552154;28;20027;-65
2021/09/13 00:13:24;;;;;;;0.10;0.10;;;;;;;14.08;96.52;101776.19;10551286;28;20023;-64
2021/09/13 00:18:25;;;;;;;0.10;0.10;;;;;;;14.12;97.16;101777.59;10533324;28;20050;-64
2021/09/13 00:23:25;;;;;;;0.10;0.10;;;;;;;14.20;96.61;101773.09;10566730;28;20456;-64
2021/09/13 00:28:25;;;;;;;0.10;0.10;;;;;;;14.25;96.32;101784.19;10552328;28;20024;-63
2021/09/13 00:33:26;;;;;;;0.10;0.10;;;;;;;14.29;97.18;101776.66;10553981;28;20024;-65
2021/09/13 00:38:26;;;;;;;0.10;0.10;;;;;;;14.31;96.65;101776.50;10546945;28;20092;-64
2021/09/13 00:43:27;;;;;;;0.10;0.10;;;;;;;14.31;96.41;101774.69;10562812;28;20793;-63
2021/09/13 00:48:27;;;;;;;0.10;0.10;;;;;;;14.33;96.64;101779.84;10554753;28;20028;-64
2021/09/13 00:53:31;;;;;;;0.15;0.15;;;;;;;14.33;96.44;101779.84;10548058;28;20032;-65
2021/09/13 00:58:31;;;;;;;0.10;0.10;;;;;;;14.33;96.48;101780.69;10541885;28;20035;-63
2021/09/13 01:03:33;;;;;;;0.10;0.10;;;;;;;14.32;95.86;101773.66;10534286;28;20077;-64
2021/09/13 01:08:33;;;;;;;0.10;0.10;;;;;;;14.34;96.51;101778.84;10552815;28;20107;-64
2021/09/13 01:13:34;;;;;;;0.10;0.10;;;;;;;14.35;96.39;101783.22;10545499;28;20031;-63
2021/09/13 01:18:35;;;;;;;0.10;0.10;;;;;;;14.38;97.03;101780.22;10544103;28;20028;-64
2021/09/13 01:23:36;;;;;;;0.10;0.10;;;;;;;14.41;96.58;101788.78;10552577;28;20685;-64
2021/09/13 01:28:37;;;;;;;0.10;0.10;;;;;;;14.42;96.10;101782.41;10549162;28;20277;-64
2021/09/13 01:33:37;;;;;;;0.10;0.10;;;;;;;14.44;96.85;101788.44;10549760;28;20031;-65
2021/09/13 01:38:38;;;;;;;0.10;0.10;;;;;;;14.45;97.29;101784.75;10544227;28;20024;-65
2021/09/13 01:43:38;;;;;;;0.00;0.00;;;;;;;14.43;97.82;101776.06;10560698;28;20012;-64
2021/09/13 01:48:38;;;;;;;0.10;0.10;;;;;;;14.39;98.11;101776.53;10573334;28;20043;-65
2021/09/13 01:53:38;;;;;;;0.10;0.10;;;;;;;14.39;97.82;101780.03;10557785;28;20048;-65
2021/09/13 01:58:39;;;;;;;0.10;0.10;;;;;;;14.38;97.89;101783.75;10535015;28;20028;-65
2021/09/13 02:03:39;;;;;;;0.10;0.10;;;;;;;14.36;98.66;101777.69;10556499;28;20016;-65
2021/09/13 02:08:42;;;;;;;0.10;0.10;;;;;;;14.35;98.77;101777.88;10562026;28;20396;-66
2021/09/13 02:13:42;;;;;;;0.10;0.10;;;;;;;14.36;98.67;101785.72;10556110;28;20352;-66
2021/09/13 02:18:43;;;;;;;0.10;0.10;;;;;;;14.35;99.28;101792.09;10558822;28;20020;-64
2021/09/13 02:23:44;;;;;;;0.10;0.10;;;;;;;14.35;98.92;101793.94;10543217;28;20029;-65
2021/09/13 02:28:44;;;;;;;0.10;0.10;;;;;;;14.34;99.38;101800.28;10558249;28;20027;-65
2021/09/13 02:33:44;;;;;;;0.10;0.10;;;;;;;14.37;99.24;101797.28;10537280;28;20036;-66
2021/09/13 02:38:45;;;;;;;0.10;0.10;;;;;;;14.37;99.60;101798.16;10568334;28;20318;-65
2021/09/13 02:43:45;;;;;;;0.10;0.10;;;;;;;14.41;98.79;101806.69;10555946;28;20453;-65
2021/09/13 02:48:45;;;;;;;0.10;0.10;;;;;;;14.41;98.79;101818.25;10550826;28;20397;-66
2021/09/13 02:53:46;;;;;;;0.10;0.10;;;;;;;14.43;99.67;101821.63;10559132;28;20110;-64
2021/09/13 02:58:46;;;;;;;0.10;0.10;;;;;;;14.42;99.54;101822.59;10547760;28;20387;-64
2021/09/13 03:03:47;;;;;;;0.10;0.10;;;;;;;14.44;99.92;101825.97;10541049;28;20437;-65
2021/09/13 03:08:47;;;;;;;0.10;0.10;;;;;;;14.44;99.21;101830.50;10554811;28;20027;-64
2021/09/13 03:13:47;;;;;;;0.10;0.10;;;;;;;14.42;99.31;101833.34;10561919;28;20154;-65
2021/09/13 03:18:47;;;;;;;0.10;0.10;;;;;;;14.42;98.44;101829.81;10565597;28;20019;-65
2021/09/13 03:23:48;;;;;;;0.10;0.10;;;;;;;14.41;98.91;101833.50;10535283;28;20357;-65
2021/09/13 03:28:48;;;;;;;0.10;0.10;;;;;;;14.40;99.14;101821.94;10551525;28;20020;-65
2021/09/13 03:33:48;;;;;;;0.10;0.10;;;;;;;14.43;97.98;101832.34;10561192;28;20023;-64
2021/09/13 03:38:48;;;;;;;0.10;0.10;;;;;;;14.42;98.13;101827.97;10575702;28;20043;-65
2021/09/13 03:43:49;;;;;;;0.10;0.10;;;;;;;14.43;97.67;101831.50;10557352;28;20412;-65
2021/09/13 05:58:11;;;;;;;0.10;0.10;;;;;;;14.66;92.16;101858.59;11255916;22;20464;-90
2021/09/13 06:03:11;;;;;;;0.10;0.10;;;;;;;14.75;92.50;101868.41;10400149;28;20064;-89
2021/09/13 06:08:11;;;;;;;0.10;0.10;;;;;;;14.81;92.20;101877.63;10398672;28;20108;-89
2021/09/13 06:13:12;;;;;;;0.10;0.10;;;;;;;14.77;91.60;101863.69;10411288;28;20091;-89
2021/09/13 06:18:14;;;;;;;0.10;0.10;;;;;;;14.88;91.81;101876.81;10405434;28;20123;-89
2021/09/13 06:23:15;;;;;;;0.10;0.10;;;;;;;14.92;92.00;101883.56;10400620;28;20041;-90
2021/09/13 06:28:15;;;;;;;0.10;0.10;;;;;;;14.92;90.01;101886.22;10408081;28;20049;-90
2021/09/13 06:33:17;;;;;;;0.10;0.10;;;;;;;14.99;90.17;101893.63;10396747;28;20026;-90
2021/09/13 06:38:26;;;;;;;0.10;0.10;;;;;;;14.97;90.43;101876.84;10405127;28;20116;-90
2021/09/13 06:43:38;;;;;;;0.10;0.10;;;;;;;15.17;89.25;101902.41;10409307;28;20022;-90
2021/09/13 06:48:40;;;;;;;0.10;0.10;;;;;;;15.20;88.61;101902.06;10400412;28;20052;-90
2021/09/13 06:53:54;;;;;;;0.10;0.10;;;;;;;15.26;89.67;101897.91;10384153;28;20030;-90
2021/09/13 06:59:06;;;;;;;0.10;0.10;;;;;;;15.28;86.89;101894.06;10395021;28;20036;-90
2021/09/13 07:04:40;;;;;;;0.10;0.10;;;;;;;15.42;86.56;101926.63;10393827;28;20446;-90
2021/09/13 07:10:17;;;;;;;0.03;0.03;;;;;;;15.33;84.87;101925.75;10393062;28;20021;-90
2021/09/13 07:15:50;;;;;;;0.10;0.10;;;;;;;15.32;84.92;101922.22;10414013;28;20021;-90
2021/09/13 07:32:20;;;;;;;0.00;0.00;;;;;;;15.59;85.60;101945.31;10397127;28;20037;-90
2021/09/13 07:37:21;;;;;;;0.10;0.10;;;;;;;15.69;84.00;101955.09;10398805;28;20021;-90
2021/09/13 07:42:30;;;;;;;0.10;0.10;;;;;;;15.73;83.22;101961.78;10399014;28;20483;-91
2021/09/13 07:47:36;;;;;;;0.10;0.10;;;;;;;15.76;85.41;101956.94;10401885;28;20026;-90
2021/09/13 07:52:36;;;;;;;0.10;0.10;;;;;;;15.86;84.04;101953.28;10389653;28;20052;-90
2021/09/13 07:58:10;;;;;;;0.00;0.00;;;;;;;16.06;83.37;101978.81;10389050;28;20079;-90
2021/09/13 08:03:24;;;;;;;0.10;0.10;;;;;;;16.18;82.48;101966.72;10397344;28;20351;-91
2021/09/13 08:08:24;;;;;;;0.08;0.08;;;;;;;16.37;82.57;101959.31;10396058;28;20013;-91
2021/09/13 08:13:24;;;;;;;0.10;0.10;;;;;;;16.59;81.28;101980.13;10394478;28;20417;-90
2021/09/13 08:18:57;;;;;;;0.00;0.00;;;;;;;16.58;79.85;101980.28;10386450;28;20079;-90
2021/09/13 08:23:57;;;;;;;0.08;0.08;;;;;;;16.60;81.32;101986.34;10385964;28;20174;-91
2021/09/13 08:29:46;;;;;;;0.10;0.10;;;;;;;16.77;79.51;101981.81;10389244;28;20208;-91
2021/09/13 08:34:46;;;;;;;0.10;0.10;;;;;;;17.12;78.72;101984.03;10409269;28;20038;-89
2021/09/13 08:39:48;;;;;;;0.10;0.10;;;;;;;17.17;78.78;101984.34;10393110;28;20046;-89
2021/09/13 08:44:51;;;;;;;0.10;0.10;;;;;;;17.29;77.66;102009.03;10420847;28;20033;-91
2021/09/13 08:49:56;;;;;;;0.10;0.10;;;;;;;17.24;76.82;101997.94;10399342;28;20296;-90
2021/09/13 08:54:56;;;;;;;0.10;0.10;;;;;;;17.37;77.53;102018.97;10380768;28;20025;-91
2021/09/13 09:00:32;;;;;;;0.00;0.00;;;;;;;17.33;76.74;102010.38;10391491;28;20018;-90
2021/09/13 09:06:00;;;;;;;0.00;0.00;;;;;;;17.56;75.48;102031.97;10373787;28;20113;-90
2021/09/13 09:11:18;;;;;;;0.10;0.10;;;;;;;17.63;76.24;102027.59;10389041;28;20040;-90
2021/09/13 09:16:21;;;;;;;0.08;0.08;;;;;;;17.69;75.39;102033.28;10402956;28;20025;-89
2021/09/13 09:21:24;;;;;;;0.10;0.10;;;;;;;17.69;73.54;102030.59;10393931;28;20080;-90
2021/09/13 09:26:34;;;;;;;0.10;0.10;;;;;;;17.43;75.90;102037.94;10389312;28;20014;-90
2021/09/13 09:31:45;;;;;;;0.10;0.10;;;;;;;17.11;77.34;102044.28;10393163;28;20030;-89
2021/09/13 09:36:57;;;;;;;0.00;0.00;;;;;;;16.81;78.46;102053.91;10393069;28;20048;-90
2021/09/13 09:41:58;;;;;;;0.10;0.10;;;;;;;16.48;78.16;102051.22;10391881;28;20510;-90
2021/09/13 09:47:09;;;;;;;0.10;0.10;;;;;;;16.26;78.08;102041.13;10399560;28;20054;-90
2021/09/13 09:52:09;;;;;;;0.00;0.00;;;;;;;16.37;80.42;102039.97;10387900;28;20483;-91
2021/09/13 09:57:11;;;;;;;0.00;0.00;;;;;;;16.50;79.60;102032.25;10390696;28;20025;-90
2021/09/13 10:02:13;;;;;;;0.00;0.00;;;;;;;16.79;79.02;102028.22;10398370;28;20022;-90
2021/09/13 10:07:16;;;;;;;0.10;0.10;;;;;;;17.12;76.31;102021.72;10395809;28;20018;-91
2021/09/13 10:12:27;;;;;;;0.10;0.10;;;;;;;17.54;76.98;102031.34;10398843;28;20022;-91
2021/09/13 10:17:27;;;;;;;0.10;0.10;;;;;;;17.73;73.17;102026.50;10402377;28;20025;-90
2021/09/13 10:22:36;;;;;;;0.00;0.00;;;;;;;17.81;74.15;102010.34;10401728;28;20018;-91
2021/09/13 10:27:47;;;;;;;0.10;0.10;;;;;;;17.97;73.99;102022.84;10397763;28;20098;-91
2021/09/13 10:33:08;;;;;;;0.10;0.10;;;;;;;18.11;75.34;102019.38;10399476;28;20025;-89
2021/09/13 10:38:08;;;;;;;0.10;0.10;;;;;;;18.28;75.80;102029.03;10394843;28;20113;-91
2021/09/13 10:43:21;;;;;;;0.10;0.10;;;;;;;18.52;75.27;102032.53;10400939;28;20455;-91
2021/09/13 10:48:24;;;;;;;0.10;0.10;;;;;;;18.80;72.34;102016.63;10403150;28;20021;-91
2021/09/13 10:53:29;;;;;;;0.10;0.10;;;;;;;19.27;70.07;102028.09;10396168;28;20068;-93
2021/09/13 10:58:56;;;;;;;0.00;0.00;;;;;;;19.70;65.53;102006.63;10397488;28;20026;-90
2021/09/13 11:04:10;;;;;;;0.00;0.00;;;;;;;19.68;65.08;102015.72;10399191;28;20071;-88
2021/09/13 11:09:16;;;;;;;0.10;0.10;;;;;;;19.61;65.86;102016.66;10398343;28;20067;-90
2021/09/13 11:14:27;;;;;;;0.10;0.10;;;;;;;19.34;66.25;102013.63;10395919;28;20017;-88
2021/09/13 11:19:28;;;;;;;0.00;0.00;;;;;;;18.82;67.51;102017.28;10399166;28;20018;-90
2021/09/13 11:24:39;;;;;;;0.00;0.00;;;;;;;18.32;69.92;102021.41;10394226;28;20021;-90
2021/09/13 11:29:48;;;;;;;0.10;0.10;;;;;;;17.97;69.12;102034.47;10394001;28;20097;-89
2021/09/13 11:34:55;;;;;;;0.00;0.00;;;;;;;17.81;72.24;102027.34;10410776;28;20045;-90
2021/09/13 11:40:00;;;;;;;0.10;0.10;;;;;;;17.92;72.69;102034.19;10405668;28;20029;-89
2021/09/13 11:45:21;;;;;;;0.00;0.00;;;;;;;18.25;70.59;102026.69;10438347;28;20064;-89
2021/09/13 11:50:21;;;;;;;0.00;0.00;;;;;;;18.74;70.58;102025.47;10442318;28;20033;-89
2021/09/13 11:55:27;;;;;;;0.10;0.10;;;;;;;19.06;69.79;102032.38;10499331;22;20465;-64
2021/09/13 12:00:35;;;;;;;0.00;0.00;;;;;;;18.91;67.57;102039.63;10473853;28;20028;-64
2021/09/13 12:05:37;;;;;;;0.00;0.00;;;;;;;18.47;67.66;102043.88;10463630;28;20017;-65
2021/09/13 12:10:39;;;;;;;0.00;0.00;;;;;;;18.21;70.55;102051.50;10466927;28;20115;-65
2021/09/13 12:15:41;;;;;;;0.00;0.00;;;;;;;17.74;69.52;102055.13;10467184;22;20036;-63
2021/09/13 12:20:43;;;;;;;0.10;0.10;;;;;;;17.52;70.92;102062.16;10438279;28;20107;-64
2021/09/13 12:25:47;;;;;;;0.10;0.10;;;;;;;17.38;72.14;102059.16;10449469;28;20052;-64
2021/09/13 12:31:02;;;;;;;0.10;0.10;;;;;;;17.37;71.88;102062.06;10449172;28;20025;-64
2021/09/13 12:36:32;;;;;;;0.10;0.10;;;;;;;17.41;72.65;102057.97;10454490;28;20021;-65
2021/09/13 12:41:41;;;;;;;0.10;0.10;;;;;;;17.53;72.11;102051.19;10421869;28;20024;-65
2021/09/13 12:46:59;;;;;;;0.00;0.00;;;;;;;17.79;71.92;102050.09;10470904;28;20261;-65
2021/09/13 12:52:02;;;;;;;0.10;0.10;;;;;;;18.06;70.84;102048.72;10490612;28;20066;-64
2021/09/13 12:57:05;;;;;;;0.10;0.10;;;;;;;18.42;70.24;102037.38;10461871;28;20044;-65
2021/09/13 13:02:14;;;;;;;0.08;0.08;;;;;;;18.45;67.34;102021.66;10449293;28;20060;-65
2021/09/13 13:07:15;;;;;;;0.03;0.03;;;;;;;18.50;66.90;102023.78;10448379;28;20070;-64
2021/09/13 13:12:15;;;;;;;0.00;0.00;;;;;;;18.52;66.67;102014.47;10483604;28;20020;-64
2021/09/13 13:17:15;;;;;;;0.10;0.10;;;;;;;18.54;68.23;102019.72;10481443;28;20388;-64
2021/09/13 13:22:17;;;;;;;0.10;0.10;;;;;;;18.66;69.15;102012.00;10489754;28;20377;-64
2021/09/13 13:27:17;;;;;;;0.00;0.00;;;;;;;18.81;65.62;102004.78;10489517;28;20593;-64
2021/09/13 13:32:17;;;;;;;0.10;0.10;;;;;;;18.92;67.17;102008.91;10491427;28;20024;-64
2021/09/13 13:37:18;;;;;;;0.00;0.00;;;;;;;18.98;64.69;102003.59;10497261;28;20021;-64
2021/09/13 13:42:19;;;;;;;0.10;0.10;;;;;;;18.94;66.29;102005.00;10493013;28;20021;-64
2021/09/13 13:47:19;;;;;;;0.10;0.10;;;;;;;18.90;66.21;102006.38;10486600;28;20024;-65
2021/09/13 13:52:21;;;;;;;0.00;0.00;;;;;;;18.84;68.20;102009.00;10497860;28;20016;-65
2021/09/13 13:57:21;;;;;;;0.00;0.00;;;;;;;18.74;66.90;101998.47;10495376;28;20028;-65
2021/09/13 14:02:22;;;;;;;0.10;0.10;;;;;;;18.66;67.41;101999.34;10497476;28;20019;-65
2021/09/13 14:07:22;;;;;;;0.10;0.10;;;;;;;18.56;66.72;101993.41;10483142;28;20021;-65
2021/09/13 14:12:22;;;;;;;0.00;0.00;;;;;;;18.44;67.69;102008.31;10463658;28;20033;-65
2021/09/13 14:17:23;;;;;;;0.10;0.10;;;;;;;18.26;67.25;101998.69;10478199;28;20120;-65
2021/09/13 14:22:23;;;;;;;0.10;0.10;;;;;;;18.13;67.25;102000.34;10497001;28;20016;-65
2021/09/13 14:27:24;;;;;;;0.00;0.00;;;;;;;18.10;67.40;102004.25;10495759;28;20028;-65
2021/09/13 14:32:25;;;;;;;0.00;0.00;;;;;;;18.10;66.81;101998.84;10495701;28;20107;-65
2021/09/13 14:37:25;;;;;;;0.10;0.10;;;;;;;18.07;66.90;102010.81;10477888;28;20062;-65
2021/09/13 14:42:25;;;;;;;0.00;0.00;;;;;;;18.02;66.43;101994.34;10452006;28;20021;-65
2021/09/13 14:47:26;;;;;;;0.10;0.10;;;;;;;17.93;66.66;101994.59;10483317;28;20492;-65
2021/09/13 14:52:26;;;;;;;0.00;0.00;;;;;;;17.85;67.66;101998.16;10492380;28;20033;-65
2021/09/13 14:57:26;;;;;;;0.00;0.00;;;;;;;17.82;67.89;102002.06;10494368;28;20032;-65
2021/09/13 15:02:26;;;;;;;0.00;0.00;;;;;;;17.80;67.43;102005.94;10483461;28;20477;-65
2021/09/13 15:07:27;;;;;;;0.00;0.00;;;;;;;17.83;68.83;102008.28;10452857;28;20017;-65
2021/09/13 15:12:28;;;;;;;0.10;0.10;;;;;;;17.81;67.90;102003.09;10452568;28;20401;-65
2021/09/13 15:17:28;;;;;;;0.00;0.00;;;;;;;17.83;68.11;102001.06;10482070;28;20032;-65
2021/09/13 15:22:28;;;;;;;0.00;0.00;;;;;;;17.85;68.65;102001.69;10492989;28;20031;-65
2021/09/13 15:27:29;;;;;;;0.00;0.00;;;;;;;17.89;69.28;101988.72;10493184;28;20024;-65
2021/09/13 15:32:29;;;;;;;0.10;0.10;;;;;;;17.91;69.74;101991.22;10491620;28;20029;-65
2021/09/13 15:37:30;;;;;;;0.10;0.10;;;;;;;17.90;69.50;101984.16;10494580;28;20624;-65
2021/09/13 15:42:30;;;;;;;0.00;0.00;;;;;;;17.86;69.34;101987.22;10495783;28;20027;-65
2021/09/13 15:47:30;;;;;;;0.10;0.10;;;;;;;17.69;68.97;101982.09;10455499;28;20023;-65
2021/09/13 15:52:31;;;;;;;0.00;0.00;;;;;;;17.56;69.09;101978.09;10453074;28;20032;-65
2021/09/13 15:57:33;;;;;;;0.10;0.10;;;;;;;17.50;68.44;101965.34;10451705;28;20527;-65
2021/09/13 16:02:35;;;;;;;0.10;0.10;;;;;;;17.39;67.93;101971.13;10452516;28;20021;-65
2021/09/13 16:07:36;;;;;;;0.00;0.00;;;;;;;17.28;69.11;101971.50;10452497;28;20104;-65
2021/09/13 16:12:38;;;;;;;0.10;0.10;;;;;;;17.07;68.23;101967.56;10452499;28;20592;-65
2021/09/13 16:17:39;;;;;;;0.00;0.00;;;;;;;16.89;70.59;101975.03;10452548;28;20037;-65
2021/09/13 16:22:41;;;;;;;0.00;0.00;;;;;;;16.75;70.97;101982.78;10451840;28;20433;-65
2021/09/13 16:27:42;;;;;;;0.10;0.10;;;;;;;16.64;71.35;101983.16;10451107;28;20486;-65
2021/09/13 16:32:42;;;;;;;0.05;0.05;;;;;;;16.53;71.66;101981.63;10451573;28;20020;-65
2021/09/13 16:37:43;;;;;;;0.00;0.00;;;;;;;16.43;71.76;101974.75;10450838;28;20021;-65
2021/09/13 16:42:43;;;;;;;0.00;0.00;;;;;;;16.34;72.62;101973.09;10451357;28;20432;-65
2021/09/13 16:47:43;;;;;;;0.10;0.10;;;;;;;16.24;72.96;101970.56;10410266;28;20025;-65
2021/09/13 16:52:43;;;;;;;0.00;0.00;;;;;;;16.13;73.85;101969.06;10409874;28;20040;-65
2021/09/13 16:57:44;;;;;;;0.00;0.00;;;;;;;16.00;74.59;101971.44;10408955;28;20567;-65
2021/09/13 17:02:44;;;;;;;0.00;0.00;;;;;;;15.84;75.71;101975.75;10409760;28;20030;-65
2021/09/13 17:07:44;;;;;;;0.10;0.10;;;;;;;15.68;75.58;101974.88;10408599;28;20057;-65
2021/09/13 17:12:50;;;;;;;0.10;0.10;;;;;;;15.53;75.82;101972.81;10408122;28;20393;-65
2021/09/13 17:17:50;;;;;;;0.10;0.10;;;;;;;15.36;76.03;101966.56;10461155;28;20550;-65
2021/09/13 17:22:50;;;;;;;0.10;0.10;;;;;;;15.21;76.42;101976.22;10491911;28;20020;-64
2021/09/13 17:27:50;;;;;;;0.10;0.10;;;;;;;15.06;77.32;101964.41;10491072;28;20035;-65
2021/09/13 17:32:51;;;;;;;0.10;0.10;;;;;;;14.88;78.02;101962.66;10491622;28;20028;-65
2021/09/13 17:37:51;;;;;;;0.10;0.10;;;;;;;14.73;78.97;101969.63;10490745;28;20102;-65
2021/09/13 17:42:51;;;;;;;0.10;0.10;;;;;;;14.56;79.99;101984.75;10491328;28;20263;-64
2021/09/13 17:47:52;;;;;;;0.10;0.10;;;;;;;14.38;81.65;101976.72;10449518;28;20389;-64
2021/09/13 17:52:52;;;;;;;0.05;0.05;;;;;;;14.17;82.68;101984.25;10449948;28;20053;-64
2021/09/13 17:57:52;;;;;;;0.10;0.10;;;;;;;13.96;84.05;101987.22;10449025;28;20024;-64
2021/09/13 18:02:58;;;;;;;0.10;0.10;;;;;;;13.77;84.18;101983.72;10449497;28;20435;-64
2021/09/13 18:07:58;;;;;;;0.10;0.10;;;;;;;13.58;84.80;101987.38;10449015;28;20032;-64
2021/09/13 18:12:59;;;;;;;0.10;0.10;;;;;;;13.30;85.74;101993.72;10449171;28;20389;-64
2021/09/13 18:17:59;;;;;;;0.10;0.10;;;;;;;13.17;86.12;101996.69;10453328;22;20044;-64
2021/09/13 18:22:59;;;;;;;0.10;0.10;;;;;;;13.05;86.53;101992.53;10454654;28;20124;-63
2021/09/13 18:27:59;;;;;;;0.10;0.10;;;;;;;12.96;87.38;101999.59;10453507;28;20118;-62
2021/09/13 18:33:00;;;;;;;0.10;0.10;;;;;;;12.87;88.09;102005.84;10452915;28;20027;-63
2021/09/13 18:38:01;;;;;;;0.00;0.00;;;;;;;12.74;88.14;102000.81;10453281;28;20322;-64
2021/09/13 18:43:05;;;;;;;0.10;0.10;;;;;;;12.64;88.70;102013.34;10452678;28;20039;-64
2021/09/13 18:48:08;;;;;;;0.10;0.10;;;;;;;12.53;89.06;102014.34;10453186;28;20040;-64
2021/09/13 18:53:09;;;;;;;0.10;0.10;;;;;;;12.44;89.41;102016.03;10452846;28;20060;-62
2021/09/13 18:58:09;;;;;;;0.00;0.00;;;;;;;12.35;90.03;102022.25;10467236;28;20631;-63
2021/09/13 19:03:09;;;;;;;0.10;0.10;;;;;;;12.24;89.97;102023.22;10452850;28;20285;-63
2021/09/13 19:08:10;;;;;;;0.10;0.10;;;;;;;12.15;90.48;102029.41;10451742;28;20107;-65
2021/09/13 19:13:13;;;;;;;0.10;0.10;;;;;;;12.09;91.05;102034.47;10451976;28;20013;-64
2021/09/13 19:18:14;;;;;;;0.10;0.10;;;;;;;12.02;91.09;102036.88;10478361;28;20108;-64
2021/09/13 19:23:15;;;;;;;0.10;0.10;;;;;;;11.94;91.38;102040.22;10493533;28;20096;-64
2021/09/13 19:28:15;;;;;;;0.10;0.10;;;;;;;11.88;91.96;102050.63;10492282;28;20473;-64
2021/09/13 19:33:15;;;;;;;0.10;0.10;;;;;;;11.82;92.11;102045.78;10491741;28;20055;-64
2021/09/13 19:38:16;;;;;;;0.10;0.10;;;;;;;11.73;91.86;102050.13;10473906;28;20029;-61
2021/09/13 19:43:16;;;;;;;0.10;0.10;;;;;;;11.67;92.73;102042.69;10459373;28;20021;-63
2021/09/13 19:48:17;;;;;;;0.10;0.10;;;;;;;11.55;92.44;102047.28;10449966;28;20267;-62
2021/09/13 19:53:17;;;;;;;0.10;0.10;;;;;;;11.43;92.60;102048.34;10450424;28;20040;-64
2021/09/13 19:58:17;;;;;;;0.10;0.10;;;;;;;11.31;92.74;102045.78;10431526;28;20321;-63
2021/09/13 20:03:18;;;;;;;0.10;0.10;;;;;;;11.20;93.08;102051.22;10449947;28;20287;-63
2021/09/13 20:08:18;;;;;;;0.10;0.10;;;;;;;11.08;93.16;102047.78;10449389;28;20456;-64
2021/09/13 20:13:19;;;;;;;0.10;0.10;;;;;;;10.94;93.27;102042.81;10433262;28;20020;-63
2021/09/13 20:18:19;;;;;;;0.10;0.10;;;;;;;10.84;94.46;102045.38;10449074;28;20033;-64
2021/09/13 20:23:19;;;;;;;0.10;0.10;;;;;;;10.80;94.99;102056.47;10449023;28;20526;-64
2021/09/13 20:28:20;;;;;;;0.10;0.10;;;;;;;10.76;95.92;102047.00;10448902;28;20267;-65
2021/09/13 20:33:25;;;;;;;0.10;0.10;;;;;;;10.68;95.34;102046.84;10448940;28;20303;-65
2021/09/13 20:38:25;;;;;;;0.03;0.03;;;;;;;10.61;95.71;102057.16;10441192;28;20401;-64
2021/09/13 20:43:26;;;;;;;0.10;0.10;;;;;;;10.56;96.10;102052.22;10428282;28;20017;-64
2021/09/13 20:48:26;;;;;;;0.03;0.03;;;;;;;10.54;96.44;102048.84;10419385;28;20374;-64
2021/09/13 20:53:28;;;;;;;0.10;0.10;;;;;;;10.48;95.89;102048.53;10427893;28;20067;-65
2021/09/13 20:58:29;;;;;;;0.10;0.10;;;;;;;10.46;96.43;102040.66;10435479;28;20025;-65
2021/09/13 21:03:29;;;;;;;0.10;0.10;;;;;;;10.43;96.84;102046.22;10417932;28;20021;-65
2021/09/13 21:08:30;;;;;;;0.00;0.00;;;;;;;10.33;96.69;102046.16;10410872;28;20513;-63
2021/09/13 21:13:31;;;;;;;0.10;0.10;;;;;;;10.23;96.54;102039.03;10425901;28;20083;-62
2021/09/13 21:18:32;;;;;;;0.10;0.10;;;;;;;10.15;96.49;102047.63;10433672;28;20052;-61
2021/09/13 21:23:33;;;;;;;0.10;0.10;;;;;;;10.08;96.53;102052.63;10426465;28;20107;-63
2021/09/13 21:28:33;;;;;;;0.10;0.10;;;;;;;10.00;96.37;102057.72;10434891;28;20105;-63
2021/09/13 21:33:33;;;;;;;0.00;0.00;;;;;;;10.01;96.19;102055.94;10435262;28;20283;-65
2021/09/13 21:38:34;;;;;;;0.10;0.10;;;;;;;10.01;96.89;102048.78;10427774;28;20120;-64
2021/09/13 21:43:34;;;;;;;0.03;0.03;;;;;;;10.01;97.00;102045.28;10424609;28;20486;-64
2021/09/13 21:48:34;;;;;;;0.10;0.10;;;;;;;10.01;97.16;102046.13;10428959;28;20104;-65
2021/09/13 21:53:35;;;;;;;0.10;0.10;;;;;;;10.02;97.64;102044.31;10429814;28;20071;-63
2021/09/13 21:58:35;;;;;;;0.10;0.10;;;;;;;10.04;98.03;102048.53;10423747;28;20052;-63
2021/09/13 22:03:35;;;;;;;0.00;0.00;;;;;;;10.04;97.30;102040.56;10426139;28;20466;-63
2021/09/13 22:08:36;;;;;;;0.10;0.10;;;;;;;9.91;96.20;102034.53;10433615;28;20111;-64
2021/09/13 22:13:36;;;;;;;0.00;0.00;;;;;;;9.77;96.50;102035.66;10445300;28;20284;-63
2021/09/13 22:18:37;;;;;;;0.10;0.10;;;;;;;9.67;96.33;102024.06;10417844;28;20029;-63
2021/09/13 22:23:37;;;;;;;0.10;0.10;;;;;;;9.53;95.51;102020.69;10412149;28;20034;-65
2021/09/13 22:28:38;;;;;;;0.00;0.00;;;;;;;9.42;95.77;102026.03;10411341;28;20030;-63
2021/09/13 22:33:38;;;;;;;0.10;0.10;;;;;;;9.38;96.43;102024.59;10411826;28;20029;-65
2021/09/13 22:38:38;;;;;;;0.10;0.10;;;;;;;9.34;96.85;102028.47;10410943;28;20021;-64
2021/09/13 22:43:39;;;;;;;0.00;0.00;;;;;;;9.31;96.61;102031.38;10410906;28;20079;-63
2021/09/13 22:48:39;;;;;;;0.00;0.00;;;;;;;9.22;96.14;102034.72;10410738;28;20410;-64
2021/09/13 22:53:39;;;;;;;0.00;0.00;;;;;;;9.15;95.95;102037.03;10410968;28;20029;-64
2021/09/13 22:58:40;;;;;;;0.00;0.00;;;;;;;9.10;96.40;102033.03;10410790;28;20397;-63
2021/09/13 23:03:40;;;;;;;0.00;0.00;;;;;;;9.05;96.97;102030.78;10410137;28;20018;-63
2021/09/13 23:08:40;;;;;;;0.00;0.00;;;;;;;9.00;97.77;102033.78;10409719;28;20219;-63
2021/09/13 23:13:41;;;;;;;0.03;0.03;;;;;;;8.94;96.79;102036.06;10410115;28;20394;-64
2021/09/13 23:18:41;;;;;;;0.10;0.10;;;;;;;8.87;98.08;102037.50;10423852;28;20387;-64
2021/09/13 23:23:41;;;;;;;0.00;0.00;;;;;;;8.84;98.12;102034.13;10431833;28;20134;-63
2021/09/13 23:28:41;;;;;;;0.00;0.00;;;;;;;8.81;98.39;102038.81;10431082;28;20427;-61
2021/09/13 23:33:42;;;;;;;0.00;0.00;;;;;;;8.74;98.24;102022.50;10434042;28;20065;-63
2021/09/13 23:38:43;;;;;;;0.00;0.00;;;;;;;8.80;98.83;102034.47;10428604;28;20088;-63
2021/09/13 23:43:43;;;;;;;0.10;0.10;;;;;;;8.79;99.10;102030.97;10431823;28;20017;-64
2021/09/13 23:48:43;;;;;;;0.00;0.00;;;;;;;8.79;99.07;102020.34;10428051;28;20260;-64
2021/09/13 23:53:44;;;;;;;0.10;0.10;;;;;;;8.74;98.41;102024.31;10436082;28;20021;-65
2021/09/13 23:58:44;;;;;;;0.00;0.00;;;;;;;8.67;99.05;102031.03;10424733;28;20017;-64
